createdAt,value
2018-12-06T00:01:59.711Z,20.10
2018-12-06T00:04:28.264Z,20.10
2018-12-06T00:06:56.679Z,20.10
2018-12-06T00:09:25.294Z,20.10
2018-12-06T00:11:53.684Z,20.10
2018-12-06T00:14:22.069Z,20.10
2018-12-06T00:16:54.810Z,20.00
2018-12-06T00:19:23.200Z,20.00
2018-12-06T00:21:51.589Z,20.00
2018-12-06T00:24:19.977Z,19.90
2018-12-06T00:26:48.394Z,19.90
2018-12-06T00:29:16.783Z,19.90
2018-12-06T00:31:45.203Z,19.90
2018-12-06T00:34:13.619Z,19.90
2018-12-06T00:36:42.123Z,19.90
2018-12-06T00:39:11.232Z,19.80
2018-12-06T00:41:39.620Z,19.80
2018-12-06T00:44:08.071Z,19.80
2018-12-06T00:46:36.482Z,19.80
2018-12-06T00:49:04.895Z,19.70
2018-12-06T00:51:33.286Z,19.70
2018-12-06T00:54:01.683Z,19.70
2018-12-06T00:56:30.095Z,19.70
2018-12-06T00:58:58.481Z,19.70
2018-12-06T01:01:26.851Z,19.60
2018-12-06T01:03:55.275Z,19.70
2018-12-06T01:06:23.683Z,19.60
2018-12-06T01:08:52.070Z,19.60
2018-12-06T01:11:20.558Z,19.60
2018-12-06T01:13:48.966Z,19.60
2018-12-06T01:16:17.353Z,19.60
2018-12-06T01:18:45.793Z,19.50
2018-12-06T01:21:14.282Z,19.50
2018-12-06T01:23:42.685Z,19.50
2018-12-06T01:26:11.072Z,19.50
2018-12-06T01:28:39.470Z,19.50
2018-12-06T01:31:07.853Z,19.50
2018-12-06T01:33:36.216Z,19.50
2018-12-06T01:36:04.608Z,19.40
2018-12-06T01:38:33.023Z,19.40
2018-12-06T01:41:01.414Z,19.40
2018-12-06T01:43:30.275Z,19.40
2018-12-06T01:45:58.694Z,19.40
2018-12-06T01:48:27.300Z,19.40
2018-12-06T01:50:55.784Z,19.40
2018-12-06T01:53:24.459Z,19.40
2018-12-06T01:55:52.938Z,19.30
2018-12-06T01:58:21.340Z,19.30
2018-12-06T02:00:49.731Z,19.30
2018-12-06T02:03:18.139Z,19.30
2018-12-06T02:05:46.556Z,19.30
2018-12-06T02:08:14.936Z,19.30
2018-12-06T02:10:43.410Z,19.30
2018-12-06T02:13:11.796Z,19.30
2018-12-06T02:15:40.181Z,19.30
2018-12-06T02:18:08.605Z,19.20
2018-12-06T02:20:36.982Z,19.20
2018-12-06T02:23:05.386Z,19.20
2018-12-06T02:25:33.780Z,19.20
2018-12-06T02:28:02.179Z,19.20
2018-12-06T02:30:30.981Z,19.20
2018-12-06T02:32:59.377Z,19.10
2018-12-06T02:35:27.779Z,19.20
2018-12-06T02:37:56.173Z,19.10
2018-12-06T02:40:24.552Z,19.10
2018-12-06T02:42:52.987Z,19.10
2018-12-06T02:45:21.417Z,19.10
2018-12-06T02:47:49.805Z,19.10
2018-12-06T02:50:18.820Z,19.10
2018-12-06T02:52:47.232Z,19.10
2018-12-06T02:55:15.616Z,19.00
2018-12-06T02:57:44.005Z,19.00
2018-12-06T03:00:12.427Z,19.10
2018-12-06T03:07:57.109Z,19.00
2018-12-06T03:10:25.497Z,18.90
2018-12-06T03:12:53.899Z,19.00
2018-12-06T03:15:22.320Z,18.90
2018-12-06T03:17:50.725Z,18.90
2018-12-06T03:20:19.130Z,18.90
2018-12-06T03:22:47.546Z,18.90
2018-12-06T03:25:15.964Z,18.90
2018-12-06T03:27:44.359Z,18.90
2018-12-06T03:30:12.862Z,18.90
2018-12-06T03:32:41.275Z,18.90
2018-12-06T03:35:09.674Z,18.90
2018-12-06T03:37:38.067Z,18.90
2018-12-06T03:40:06.897Z,18.90
2018-12-06T03:42:35.291Z,18.90
2018-12-06T03:45:03.882Z,18.90
2018-12-06T03:47:32.269Z,18.90
2018-12-06T03:50:00.644Z,18.80
2018-12-06T03:52:29.143Z,18.90
2018-12-06T03:54:57.525Z,18.90
2018-12-06T03:57:25.958Z,18.80
2018-12-06T03:59:54.472Z,18.80
2018-12-06T04:02:22.867Z,18.80
2018-12-06T04:04:51.387Z,18.80
2018-12-06T04:07:19.786Z,18.80
2018-12-06T04:09:48.184Z,18.80
2018-12-06T04:12:16.701Z,18.80
2018-12-06T04:14:45.082Z,18.80
2018-12-06T04:17:13.481Z,18.80
2018-12-06T04:19:41.853Z,18.70
2018-12-06T04:22:10.252Z,18.70
2018-12-06T04:24:38.655Z,18.70
2018-12-06T04:27:07.067Z,18.70
2018-12-06T04:29:35.454Z,18.70
2018-12-06T04:32:03.819Z,18.70
2018-12-06T04:34:32.218Z,18.70
2018-12-06T04:37:00.630Z,18.70
2018-12-06T04:39:29.000Z,18.70
2018-12-06T04:41:57.388Z,18.70
2018-12-06T04:44:25.836Z,18.70
2018-12-06T04:46:54.221Z,18.70
2018-12-06T04:49:22.626Z,18.70
2018-12-06T04:51:51.016Z,18.70
2018-12-06T04:54:19.404Z,18.80
2018-12-06T04:56:47.820Z,18.90
2018-12-06T04:59:16.283Z,18.90
2018-12-06T05:01:44.678Z,19.00
2018-12-06T05:04:13.084Z,19.10
2018-12-06T05:06:41.478Z,19.10
2018-12-06T05:09:09.875Z,19.10
2018-12-06T05:11:38.265Z,19.10
2018-12-06T05:14:06.653Z,19.20
2018-12-06T05:16:35.057Z,19.10
2018-12-06T05:19:03.448Z,19.20
2018-12-06T05:21:31.895Z,19.20
2018-12-06T05:24:00.286Z,19.20
2018-12-06T05:26:28.668Z,19.30
2018-12-06T05:28:57.073Z,19.30
2018-12-06T05:31:25.472Z,19.30
2018-12-06T05:33:53.975Z,19.30
2018-12-06T05:36:22.368Z,19.40
2018-12-06T05:38:50.759Z,19.40
2018-12-06T05:41:19.127Z,19.40
2018-12-06T05:43:47.598Z,19.50
2018-12-06T05:46:15.990Z,19.50
2018-12-06T05:48:44.384Z,19.50
2018-12-06T05:51:14.320Z,19.60
2018-12-06T05:53:43.026Z,19.70
2018-12-06T05:56:11.397Z,19.70
2018-12-06T05:58:39.777Z,19.80
2018-12-06T06:01:08.181Z,19.80
2018-12-06T06:03:36.560Z,19.80
2018-12-06T06:06:04.954Z,19.90
2018-12-06T06:08:33.349Z,19.90
2018-12-06T06:11:01.962Z,20.00
2018-12-06T06:13:31.063Z,20.00
2018-12-06T06:16:08.986Z,20.00
2018-12-06T06:18:37.383Z,20.00
2018-12-06T06:21:05.790Z,20.10
2018-12-06T06:23:35.254Z,20.10
2018-12-06T06:26:03.656Z,20.10
2018-12-06T06:28:32.033Z,20.10
2018-12-06T06:31:00.447Z,20.10
2018-12-06T06:33:28.846Z,20.10
2018-12-06T06:35:57.248Z,20.20
2018-12-06T06:38:26.036Z,20.20
2018-12-06T06:40:54.430Z,20.20
2018-12-06T06:43:22.831Z,20.20
2018-12-06T06:45:51.262Z,20.20
2018-12-06T06:48:19.664Z,20.20
2018-12-06T06:50:48.060Z,20.30
2018-12-06T06:53:16.999Z,20.30
2018-12-06T06:55:45.407Z,20.30
2018-12-06T06:58:13.791Z,20.30
2018-12-06T07:00:42.162Z,20.30
2018-12-06T07:03:10.554Z,20.30
2018-12-06T07:05:39.002Z,20.30
2018-12-06T07:08:07.396Z,20.30
2018-12-06T07:12:05.071Z,20.30
2018-12-06T07:14:33.495Z,20.30
2018-12-06T07:17:01.921Z,20.20
2018-12-06T07:19:30.310Z,20.20
2018-12-06T07:21:58.702Z,20.20
2018-12-06T07:24:27.115Z,20.20
2018-12-06T07:26:55.500Z,20.20
2018-12-06T07:29:23.904Z,20.20
2018-12-06T07:31:52.320Z,20.20
2018-12-06T07:34:20.744Z,20.20
2018-12-06T07:36:49.143Z,20.10
2018-12-06T07:39:17.532Z,20.10
2018-12-06T07:41:45.943Z,20.10
2018-12-06T07:44:14.335Z,20.10
2018-12-06T07:46:42.750Z,20.10
2018-12-06T07:49:11.159Z,20.10
2018-12-06T07:51:39.571Z,20.10
2018-12-06T07:54:07.952Z,20.10
2018-12-06T07:56:36.352Z,20.10
2018-12-06T07:59:04.740Z,20.00
2018-12-06T08:01:33.116Z,20.00
2018-12-06T08:04:01.536Z,20.00
2018-12-06T08:06:30.050Z,20.00
2018-12-06T08:08:58.506Z,19.90
2018-12-06T08:11:26.892Z,20.00
2018-12-06T08:13:55.276Z,19.90
2018-12-06T08:16:23.676Z,19.90
2018-12-06T08:18:52.040Z,19.90
2018-12-06T08:21:20.412Z,19.90
2018-12-06T08:23:48.787Z,19.90
2018-12-06T08:26:17.138Z,19.80
2018-12-06T08:28:45.512Z,19.80
2018-12-06T08:31:13.876Z,19.80
2018-12-06T08:33:42.260Z,19.80
2018-12-06T08:36:10.611Z,19.70
2018-12-06T08:38:38.963Z,19.80
2018-12-06T08:41:07.340Z,19.70
2018-12-06T08:43:35.714Z,19.70
2018-12-06T08:46:04.103Z,19.70
2018-12-06T08:48:32.495Z,19.70
2018-12-06T08:51:00.862Z,19.70
2018-12-06T08:53:29.219Z,19.70
2018-12-06T08:55:57.604Z,19.60
2018-12-06T08:58:25.959Z,19.60
2018-12-06T09:00:54.338Z,19.60
2018-12-06T09:03:22.693Z,19.60
2018-12-06T09:05:51.041Z,19.60
2018-12-06T09:08:19.410Z,19.60
2018-12-06T09:10:51.602Z,19.50
2018-12-06T09:13:18.143Z,19.50
2018-12-06T09:15:46.502Z,19.50
2018-12-06T09:18:15.315Z,19.50
2018-12-06T09:20:43.699Z,19.50
2018-12-06T09:23:12.061Z,19.50
2018-12-06T09:25:40.441Z,19.50
2018-12-06T09:28:08.811Z,19.40
2018-12-06T09:30:37.232Z,19.50
2018-12-06T09:33:05.593Z,19.50
2018-12-06T09:35:34.023Z,19.40
2018-12-06T09:38:02.376Z,19.40
2018-12-06T09:40:30.730Z,19.40
2018-12-06T09:42:59.096Z,19.40
2018-12-06T09:45:27.451Z,19.40
2018-12-06T09:47:55.810Z,19.40
2018-12-06T09:50:24.176Z,19.30
2018-12-06T09:52:52.533Z,19.30
2018-12-06T09:55:20.899Z,19.30
2018-12-06T09:57:49.278Z,19.30
2018-12-06T10:00:17.783Z,19.30
2018-12-06T10:02:46.152Z,19.30
2018-12-06T10:05:14.536Z,19.30
2018-12-06T10:07:42.922Z,19.30
2018-12-06T10:10:11.303Z,19.30
2018-12-06T10:12:39.674Z,19.30
2018-12-06T10:15:08.071Z,19.30
2018-12-06T10:17:36.517Z,19.20
2018-12-06T10:20:06.512Z,19.20
2018-12-06T10:22:34.867Z,19.20
2018-12-06T10:25:03.211Z,19.20
2018-12-06T10:27:31.605Z,19.20
2018-12-06T10:29:59.990Z,19.20
2018-12-06T10:32:28.359Z,19.20
2018-12-06T10:34:56.744Z,19.20
2018-12-06T10:37:25.095Z,19.20
2018-12-06T10:39:53.461Z,19.20
2018-12-06T10:42:21.818Z,19.20
2018-12-06T10:44:50.187Z,19.20
2018-12-06T10:47:18.564Z,19.10
2018-12-06T10:49:46.918Z,19.20
2018-12-06T10:52:15.306Z,19.10
2018-12-06T10:54:43.682Z,19.10
2018-12-06T10:57:12.068Z,19.20
2018-12-06T10:59:40.443Z,19.10
2018-12-06T11:02:14.087Z,19.20
2018-12-06T11:04:42.436Z,19.10
2018-12-06T11:07:10.815Z,19.10
2018-12-06T11:09:39.156Z,19.10
2018-12-06T11:12:07.534Z,19.10
2018-12-06T11:14:35.881Z,19.10
2018-12-06T11:17:04.767Z,19.10
2018-12-06T11:19:33.140Z,19.10
2018-12-06T11:22:01.501Z,19.10
2018-12-06T11:24:29.865Z,19.10
2018-12-06T11:26:58.230Z,19.00
2018-12-06T11:29:26.627Z,19.10
2018-12-06T11:31:54.979Z,19.10
2018-12-06T11:34:23.339Z,19.10
2018-12-06T11:36:51.727Z,19.00
2018-12-06T11:39:20.076Z,19.10
2018-12-06T11:41:48.467Z,19.10
2018-12-06T11:44:16.850Z,19.10
2018-12-06T11:46:45.290Z,19.10
2018-12-06T11:49:13.651Z,19.10
2018-12-06T11:51:42.032Z,19.00
2018-12-06T11:54:10.407Z,19.00
2018-12-06T11:56:38.788Z,19.00
2018-12-06T11:59:07.148Z,19.00
2018-12-06T12:01:35.527Z,19.00
2018-12-06T12:04:03.901Z,19.00
2018-12-06T12:06:32.265Z,19.00
2018-12-06T12:09:01.192Z,18.90
2018-12-06T12:11:29.548Z,18.90
2018-12-06T12:13:57.945Z,18.90
2018-12-06T12:16:26.336Z,19.00
2018-12-06T12:18:54.684Z,18.90
2018-12-06T12:21:23.062Z,18.90
2018-12-06T12:23:51.447Z,18.90
2018-12-06T12:26:19.828Z,18.90
2018-12-06T12:28:48.267Z,18.90
2018-12-06T12:31:16.635Z,18.90
2018-12-06T12:33:45.016Z,18.90
2018-12-06T12:36:13.412Z,18.90
2018-12-06T12:38:41.802Z,18.90
2018-12-06T12:41:10.377Z,18.90
2018-12-06T12:43:38.755Z,18.90
2018-12-06T12:46:07.108Z,18.90
2018-12-06T12:48:35.481Z,18.90
2018-12-06T12:52:06.752Z,18.90
2018-12-06T12:54:35.112Z,18.80
2018-12-06T12:57:03.468Z,18.80
2018-12-06T12:59:32.556Z,18.80
2018-12-06T13:02:00.921Z,18.80
2018-12-06T13:04:29.299Z,18.80
2018-12-06T13:07:03.198Z,18.80
2018-12-06T13:09:31.568Z,18.80
2018-12-06T13:11:59.945Z,18.80
2018-12-06T13:14:28.288Z,18.80
2018-12-06T13:16:56.666Z,18.80
2018-12-06T13:19:25.028Z,18.80
2018-12-06T13:21:53.393Z,18.80
2018-12-06T13:24:21.736Z,18.80
2018-12-06T13:26:50.106Z,18.70
2018-12-06T13:29:18.492Z,18.80
2018-12-06T13:31:46.864Z,18.80
2018-12-06T13:34:15.231Z,18.70
2018-12-06T13:36:43.579Z,18.70
2018-12-06T13:39:12.016Z,18.70
2018-12-06T13:41:40.364Z,18.70
2018-12-06T13:44:08.744Z,18.70
2018-12-06T13:46:37.124Z,18.70
2018-12-06T13:49:05.514Z,18.70
2018-12-06T13:51:33.882Z,18.70
2018-12-06T13:54:02.268Z,18.70
2018-12-06T13:56:30.674Z,18.70
2018-12-06T13:58:59.065Z,18.70
2018-12-06T14:01:27.608Z,18.70
2018-12-06T14:03:56.031Z,18.70
2018-12-06T14:06:24.391Z,18.70
2018-12-06T14:08:52.753Z,18.60
2018-12-06T14:11:21.156Z,18.70
2018-12-06T14:13:49.562Z,18.60
2018-12-06T14:16:17.920Z,18.60
2018-12-06T14:18:46.272Z,18.60
2018-12-06T14:21:14.624Z,18.60
2018-12-06T14:23:43.012Z,18.60
2018-12-06T14:26:11.373Z,18.60
2018-12-06T14:28:39.741Z,18.60
2018-12-06T14:31:08.104Z,18.60
2018-12-06T14:33:36.464Z,18.60
2018-12-06T14:36:04.830Z,18.60
2018-12-06T14:38:33.306Z,18.60
2018-12-06T14:41:01.658Z,18.60
2018-12-06T14:43:30.145Z,18.60
2018-12-06T14:45:58.643Z,18.60
2018-12-06T14:48:27.349Z,18.60
2018-12-06T14:50:55.692Z,18.60
2018-12-06T14:53:24.057Z,18.50
2018-12-06T14:55:52.449Z,18.50
2018-12-06T14:58:20.803Z,18.50
2018-12-06T15:00:49.179Z,18.50
2018-12-06T15:03:17.540Z,18.50
2018-12-06T15:05:45.959Z,18.50
2018-12-06T15:08:14.398Z,18.50
2018-12-06T15:10:42.799Z,18.50
2018-12-06T15:13:11.158Z,18.50
2018-12-06T15:15:39.645Z,18.50
2018-12-06T15:18:08.015Z,18.50
2018-12-06T15:20:36.409Z,18.50
2018-12-06T15:23:04.779Z,18.50
2018-12-06T15:25:33.144Z,18.50
2018-12-06T15:28:01.523Z,18.50
2018-12-06T15:30:32.129Z,18.50
2018-12-06T15:33:00.507Z,18.50
2018-12-06T15:35:28.885Z,18.40
2018-12-06T15:37:57.291Z,18.40
2018-12-06T15:40:25.663Z,18.40
2018-12-06T15:42:54.195Z,18.50
2018-12-06T15:45:22.665Z,18.40
2018-12-06T15:47:51.027Z,18.50
2018-12-06T15:50:19.419Z,18.50
2018-12-06T15:52:47.780Z,18.50
2018-12-06T15:55:16.152Z,18.60
2018-12-06T15:57:44.527Z,18.60
2018-12-06T16:00:13.246Z,18.70
2018-12-06T16:02:41.631Z,18.70
2018-12-06T16:05:10.007Z,18.80
2018-12-06T16:07:38.459Z,18.80
2018-12-06T16:10:08.707Z,18.90
2018-12-06T16:12:37.080Z,19.00
2018-12-06T16:15:06.702Z,19.00
2018-12-06T16:17:35.079Z,19.10
2018-12-06T16:20:03.433Z,19.10
2018-12-06T16:22:31.809Z,19.20
2018-12-06T16:25:00.174Z,19.30
2018-12-06T16:27:28.575Z,19.30
2018-12-06T16:29:56.936Z,19.40
2018-12-06T16:32:25.288Z,19.40
2018-12-06T16:34:53.653Z,19.50
2018-12-06T16:37:22.016Z,19.60
2018-12-06T16:39:50.384Z,19.60
2018-12-06T16:42:18.751Z,19.70
2018-12-06T16:44:47.222Z,19.70
2018-12-06T16:48:44.791Z,19.70
2018-12-06T16:51:13.228Z,19.80
2018-12-06T16:53:41.656Z,19.80
2018-12-06T16:56:10.026Z,19.80
2018-12-06T16:58:38.408Z,19.80
2018-12-06T17:01:06.787Z,19.90
2018-12-06T17:03:35.145Z,19.90
2018-12-06T17:06:03.520Z,19.90
2018-12-06T17:08:31.882Z,19.90
2018-12-06T17:11:00.284Z,20.00
2018-12-06T17:13:28.655Z,20.00
2018-12-06T17:15:57.042Z,20.10
2018-12-06T17:18:25.426Z,20.10
2018-12-06T17:20:54.751Z,20.10
2018-12-06T17:23:23.139Z,20.10
2018-12-06T17:25:51.517Z,20.10
2018-12-06T17:28:19.864Z,20.10
2018-12-06T17:30:48.236Z,20.20
2018-12-06T17:33:16.589Z,20.20
2018-12-06T17:35:44.959Z,20.20
2018-12-06T17:38:13.347Z,20.20
2018-12-06T17:40:41.692Z,20.20
2018-12-06T17:43:10.052Z,20.20
2018-12-06T17:45:38.435Z,20.20
2018-12-06T17:48:06.807Z,20.30
2018-12-06T17:50:35.188Z,20.30
2018-12-06T17:53:03.598Z,20.30
2018-12-06T17:55:31.999Z,20.30
2018-12-06T17:58:00.420Z,20.40
2018-12-06T18:00:31.109Z,20.40
2018-12-06T18:03:05.719Z,20.40
2018-12-06T18:05:34.092Z,20.40
2018-12-06T18:08:02.475Z,20.40
2018-12-06T18:10:32.087Z,20.40
2018-12-06T18:13:00.452Z,20.40
2018-12-06T18:15:29.037Z,20.40
2018-12-06T18:17:59.210Z,20.40
2018-12-06T18:20:27.589Z,20.50
2018-12-06T18:22:56.558Z,20.50
2018-12-06T18:25:24.919Z,20.50
2018-12-06T18:27:53.298Z,20.50
2018-12-06T18:30:21.652Z,20.60
2018-12-06T18:32:50.004Z,20.60
2018-12-06T18:35:18.416Z,20.60
2018-12-06T18:37:46.783Z,20.60
2018-12-06T18:40:15.170Z,20.60
2018-12-06T18:42:43.524Z,20.60
2018-12-06T18:45:11.914Z,20.60
2018-12-06T18:47:40.299Z,20.70
2018-12-06T18:50:08.679Z,20.70
2018-12-06T18:52:37.084Z,20.70
2018-12-06T18:55:05.772Z,20.80
2018-12-06T18:57:34.158Z,20.80
2018-12-06T19:00:02.563Z,20.90
2018-12-06T19:02:30.905Z,20.90
2018-12-06T19:04:59.287Z,21.00
2018-12-06T19:07:27.653Z,21.00
2018-12-06T19:09:56.022Z,21.00
2018-12-06T19:12:24.399Z,21.10
2018-12-06T19:14:52.785Z,21.10
2018-12-06T19:17:21.148Z,21.10
2018-12-06T19:19:49.545Z,21.10
2018-12-06T19:22:17.892Z,21.20
2018-12-06T19:24:46.278Z,21.20
2018-12-06T19:27:14.711Z,21.20
2018-12-06T19:29:43.069Z,21.30
2018-12-06T19:33:14.723Z,21.40
2018-12-06T19:35:43.112Z,21.40
2018-12-06T19:38:11.627Z,21.50
2018-12-06T19:40:40.103Z,21.50
2018-12-06T19:43:08.521Z,21.50
2018-12-06T19:45:36.895Z,21.60
2018-12-06T19:48:05.437Z,21.60
2018-12-06T19:50:33.820Z,21.70
2018-12-06T19:53:03.111Z,21.70
2018-12-06T19:55:31.466Z,21.70
2018-12-06T19:57:59.838Z,21.80
2018-12-06T20:00:28.212Z,21.80
2018-12-06T20:02:56.573Z,21.80
2018-12-06T20:05:24.946Z,21.80
2018-12-06T20:07:53.373Z,21.80
2018-12-06T20:10:21.981Z,21.70
2018-12-06T20:12:50.366Z,21.70
2018-12-06T20:15:18.853Z,21.60
2018-12-06T20:17:47.372Z,21.60
2018-12-06T20:20:23.188Z,21.50
2018-12-06T20:22:46.302Z,21.50
2018-12-06T20:25:14.717Z,21.50
2018-12-06T20:27:43.792Z,21.50
2018-12-06T20:30:13.017Z,21.50
2018-12-06T20:32:41.535Z,21.50
2018-12-06T20:35:10.098Z,21.50
2018-12-06T20:37:38.558Z,21.50
2018-12-06T20:40:06.900Z,21.40
2018-12-06T20:42:35.489Z,21.50
2018-12-06T20:45:03.880Z,21.50
2018-12-06T20:47:32.379Z,21.40
2018-12-06T20:50:01.035Z,21.50
2018-12-06T20:52:30.385Z,21.50
2018-12-06T20:54:59.164Z,21.50
2018-12-06T20:57:27.737Z,21.50
2018-12-06T21:00:00.954Z,21.50
2018-12-06T21:02:31.233Z,21.50
2018-12-06T21:04:59.753Z,21.50
2018-12-06T21:07:28.784Z,21.50
2018-12-06T21:09:57.265Z,21.50
2018-12-06T21:12:26.500Z,21.50
2018-12-06T21:14:54.876Z,21.50
2018-12-06T21:17:23.721Z,21.60
2018-12-06T21:19:52.545Z,21.50
2018-12-06T21:22:21.364Z,21.60
2018-12-06T21:24:49.732Z,21.60
2018-12-06T21:27:18.129Z,21.50
2018-12-06T21:29:46.469Z,21.60
2018-12-06T21:32:14.903Z,21.60
2018-12-06T21:34:43.270Z,21.60
2018-12-06T21:37:42.550Z,21.60
2018-12-06T21:40:10.986Z,21.60
2018-12-06T21:42:39.367Z,21.80
2018-12-06T21:45:07.730Z,21.80
2018-12-06T21:47:36.659Z,21.90
2018-12-06T21:50:06.322Z,21.90
2018-12-06T21:52:34.668Z,21.90
2018-12-06T21:55:03.053Z,21.90
2018-12-06T21:57:31.412Z,22.00
2018-12-06T21:59:59.798Z,21.90
2018-12-06T22:02:28.166Z,21.90
2018-12-06T22:04:56.527Z,21.90
2018-12-06T22:07:24.885Z,21.90
2018-12-06T22:09:53.244Z,21.90
2018-12-06T22:12:21.612Z,21.90
2018-12-06T22:15:04.618Z,21.90
2018-12-06T22:17:33.347Z,21.90
2018-12-06T22:20:16.320Z,21.90
2018-12-06T22:22:44.734Z,21.90
2018-12-06T22:25:13.179Z,21.80
2018-12-06T22:27:41.683Z,21.80
2018-12-06T22:30:11.638Z,21.80
2018-12-06T22:32:40.249Z,21.80
2018-12-06T22:35:08.614Z,21.70
2018-12-06T22:37:37.895Z,21.70
2018-12-06T22:40:06.628Z,21.70
2018-12-06T22:42:34.995Z,21.70
2018-12-06T22:46:06.297Z,21.60
2018-12-06T22:48:34.644Z,21.60
2018-12-06T22:51:03.007Z,21.60
2018-12-06T22:53:31.363Z,21.60
2018-12-06T22:55:59.723Z,21.50
2018-12-06T22:58:28.099Z,21.50
2018-12-06T23:00:57.642Z,21.50
2018-12-06T23:03:26.838Z,21.50
2018-12-06T23:05:55.199Z,21.40
2018-12-06T23:08:23.552Z,21.40
2018-12-06T23:10:51.929Z,21.40
2018-12-06T23:13:20.280Z,21.40
2018-12-06T23:15:48.650Z,21.40
2018-12-06T23:18:17.035Z,21.40
2018-12-06T23:20:45.412Z,21.30
2018-12-06T23:23:13.888Z,21.30
2018-12-06T23:25:42.247Z,21.30
2018-12-06T23:28:10.611Z,21.30
2018-12-06T23:30:39.295Z,21.20
2018-12-06T23:33:07.656Z,21.20
2018-12-06T23:35:36.027Z,21.20
2018-12-06T23:38:04.384Z,21.20
2018-12-06T23:40:32.755Z,21.20
2018-12-06T23:43:01.135Z,21.10
2018-12-06T23:45:29.508Z,21.10
2018-12-06T23:47:57.869Z,21.10
2018-12-06T23:50:26.268Z,21.10
2018-12-06T23:52:54.637Z,21.00
2018-12-06T23:55:23.027Z,21.00
2018-12-06T23:57:51.372Z,21.00
